Página principal
METAR-TAF:

METAR-TAF

Aeroportos :

Rarotonga, Ilhas Cook

latitude: 21-12S, longitude: 159-49W, altura: 7 m

Observação actual do tempo

O boletim foi feito há 12 minutos, às 00:00 UTC
Vento 7 kt de norte
Temperatura 28°C
Humidade 70%
Pressão 1010 hPa
Visibilidade 10 km ou mais
Nuvens dispersasa uma altura de 2200 ft
Nuvens dispersasa uma altura de 4500 ft
Nuvens fragmentadasa uma altura de 29000 ft

METAR: NCRG 130000Z 36007KT 9999 SCT022 SCT045 BKN290 28/22 Q1010

Hora: 14:12 (00:12 UTC)

Previsão

O boletim foi feito há 1 hora e 2 minutos, às 23:10 UTC
Previsão válida de 13 às 00 UTC a 13 às 24 UTC
Vento 12 kt de norte
Visibilidade 10 km ou mais
Poucas nuvensa uma altura de 1600 ft
Nuvens fragmentadasa uma altura de 4500 ft
Probabilidade 30% :
Temporariamente
de 13 às 12 UTC a 13 às 18 UTC
Visibilidade: 7000 m
Nuvens fragmentadasa uma altura de 1500 ft
aguaceiros de chuva

TAF: NCRG 122310Z 1300/1324 01012KT 9999 FEW016 BKN045 PROB30 TEMPO 1312/1318 7000 SHRA BKN015

Observações e previsões do tempo de mais de 4000 aeroportos (mensagens METAR e TAF).

As estações disponíveis são os pontos amarelos e vermelhos sobre o mapa.

Mova o rato sobre o mapa para ver o nome da estação.

Depois clique no ponto para visualizar as observações e previsões meteorológicas.

Para alterar o mapa : clique nos botões verdes com uma cruz preta para aumentar o zoom; no botão verde com uma pitada de zoom; ou nas setas verdes para mapas adjacentes.


METAR-TAF: